createdAt,value
2019-02-12T00:00:14.843Z,24.97
2019-02-12T00:02:21.936Z,24.94
2019-02-12T00:04:29.400Z,24.91
2019-02-12T00:06:36.881Z,24.96
2019-02-12T00:08:43.892Z,24.93
2019-02-12T00:10:51.113Z,24.94
2019-02-12T00:12:58.664Z,24.94
2019-02-12T00:15:06.930Z,24.91
2019-02-12T00:17:14.160Z,24.94
2019-02-12T00:19:22.833Z,24.93
2019-02-12T00:21:30.323Z,24.89
2019-02-12T00:23:37.432Z,24.89
2019-02-12T00:25:44.645Z,24.86
2019-02-12T00:27:52.059Z,24.64
2019-02-12T00:30:00.233Z,24.53
2019-02-12T00:32:07.534Z,24.49
2019-02-12T00:34:16.128Z,24.44
2019-02-12T00:36:23.429Z,24.46
2019-02-12T00:38:30.816Z,24.44
2019-02-12T00:40:37.991Z,24.41
2019-02-12T00:42:45.355Z,24.53
2019-02-12T00:44:53.162Z,24.50
2019-02-12T00:47:00.459Z,24.57
2019-02-12T00:49:07.676Z,24.45
2019-02-12T00:51:17.804Z,24.56
2019-02-12T00:53:24.688Z,24.47
2019-02-12T00:55:32.012Z,24.48
2019-02-12T00:57:39.967Z,24.50
2019-02-12T00:59:47.255Z,24.66
2019-02-12T01:01:54.482Z,24.74
2019-02-12T01:04:01.810Z,24.83
2019-02-12T01:06:09.265Z,24.81
2019-02-12T01:08:16.877Z,24.73
2019-02-12T01:10:24.725Z,24.67
2019-02-12T01:12:31.680Z,24.63
2019-02-12T01:14:39.195Z,24.68
2019-02-12T01:16:46.518Z,24.77
2019-02-12T01:18:53.798Z,24.68
2019-02-12T01:21:01.190Z,24.65
2019-02-12T01:23:08.605Z,24.61
2019-02-12T01:25:15.687Z,24.48
2019-02-12T01:27:22.989Z,24.38
2019-02-12T01:29:30.436Z,24.35
2019-02-12T01:31:37.837Z,24.49
2019-02-12T01:33:45.285Z,24.45
2019-02-12T01:35:52.470Z,24.35
2019-02-12T01:38:01.877Z,24.32
2019-02-12T01:40:10.112Z,24.29
2019-02-12T01:42:23.050Z,24.27
2019-02-12T01:44:30.253Z,24.26
2019-02-12T01:46:37.446Z,24.37
2019-02-12T01:48:44.976Z,24.52
2019-02-12T01:50:52.196Z,24.75
2019-02-12T01:53:00.752Z,24.82
2019-02-12T01:55:07.916Z,24.97
2019-02-12T01:57:15.837Z,24.72
2019-02-12T01:59:23.280Z,24.23
2019-02-12T02:01:30.771Z,24.00
2019-02-12T02:03:37.957Z,23.88
2019-02-12T02:05:45.883Z,23.56
2019-02-12T02:07:57.620Z,23.29
2019-02-12T02:10:05.263Z,23.20
2019-02-12T02:12:12.897Z,23.19
2019-02-12T02:14:20.224Z,23.32
2019-02-12T02:16:27.542Z,23.49
2019-02-12T02:18:35.264Z,23.57
2019-02-12T02:20:44.204Z,23.64
2019-02-12T02:22:51.782Z,23.59
2019-02-12T02:24:58.917Z,23.48
2019-02-12T02:27:07.844Z,23.42
2019-02-12T02:29:14.998Z,23.46
2019-02-12T02:31:22.297Z,23.48
2019-02-12T02:33:33.546Z,23.42
2019-02-12T02:35:41.027Z,23.46
2019-02-12T02:37:48.790Z,23.40
2019-02-12T02:39:55.966Z,23.38
2019-02-12T02:42:26.259Z,23.43
2019-02-12T02:44:33.770Z,23.35
2019-02-12T02:46:41.029Z,23.25
2019-02-12T02:48:48.330Z,23.25
2019-02-12T02:50:56.002Z,23.22
2019-02-12T02:53:03.153Z,23.25
2019-02-12T02:55:10.365Z,23.18
2019-02-12T02:57:17.570Z,23.11
2019-02-12T02:59:24.805Z,23.14
2019-02-12T03:01:32.934Z,23.08
2019-02-12T03:03:40.444Z,23.09
2019-02-12T03:05:51.275Z,23.04
2019-02-12T03:07:58.580Z,23.03
2019-02-12T03:10:06.183Z,23.07
2019-02-12T03:12:13.711Z,22.98
2019-02-12T03:14:22.277Z,22.98
2019-02-12T03:16:30.743Z,22.98
2019-02-12T03:18:38.054Z,22.90
2019-02-12T03:20:45.256Z,22.90
2019-02-12T03:22:53.288Z,22.85
2019-02-12T03:25:00.487Z,22.85
2019-02-12T03:27:07.809Z,22.87
2019-02-12T03:29:15.113Z,23.01
2019-02-12T03:31:22.324Z,23.11
2019-02-12T03:33:29.617Z,23.33
2019-02-12T03:35:51.948Z,23.57
2019-02-12T03:37:59.448Z,23.75
2019-02-12T03:40:07.238Z,23.83
2019-02-12T03:42:14.498Z,23.78
2019-02-12T03:44:21.653Z,23.68
2019-02-12T03:46:28.823Z,23.63
2019-02-12T03:48:36.267Z,23.48
2019-02-12T03:50:44.283Z,23.40
2019-02-12T03:52:52.082Z,23.35
2019-02-12T03:55:00.576Z,23.28
2019-02-12T03:57:08.447Z,23.25
2019-02-12T03:59:16.246Z,23.24
2019-02-12T04:01:23.998Z,23.19
2019-02-12T04:03:32.297Z,23.20
2019-02-12T04:05:40.495Z,23.15
2019-02-12T04:07:48.518Z,23.11
2019-02-12T04:09:56.171Z,23.05
2019-02-12T04:12:03.738Z,23.03
2019-02-12T04:14:11.094Z,22.99
2019-02-12T04:16:20.867Z,22.96
2019-02-12T04:18:28.432Z,22.93
2019-02-12T04:20:35.830Z,22.85
2019-02-12T04:22:43.337Z,22.81
2019-02-12T04:24:50.536Z,22.75
2019-02-12T04:26:58.115Z,22.79
2019-02-12T04:29:05.536Z,22.70
2019-02-12T04:31:12.822Z,22.72
2019-02-12T04:33:24.067Z,22.69
2019-02-12T04:35:56.942Z,22.76
2019-02-12T04:38:04.181Z,22.68
2019-02-12T04:40:11.963Z,22.73
2019-02-12T04:42:20.439Z,22.74
2019-02-12T04:44:27.890Z,22.67
2019-02-12T04:46:35.399Z,22.64
2019-02-12T04:48:42.656Z,22.63
2019-02-12T04:50:50.461Z,22.60
2019-02-12T04:52:57.768Z,22.60
2019-02-12T04:55:06.160Z,22.57
2019-02-12T04:57:14.197Z,22.58
2019-02-12T04:59:21.563Z,22.55
2019-02-12T05:01:28.874Z,22.52
2019-02-12T05:03:36.332Z,22.49
2019-02-12T05:05:43.583Z,22.45
2019-02-12T05:07:51.405Z,22.43
2019-02-12T05:09:58.845Z,22.40
2019-02-12T05:12:08.431Z,22.38
2019-02-12T05:14:16.243Z,22.37
2019-02-12T05:16:24.047Z,22.39
2019-02-12T05:18:31.258Z,22.31
2019-02-12T05:20:39.181Z,22.46
2019-02-12T05:22:46.531Z,22.57
2019-02-12T05:25:12.264Z,22.71
2019-02-12T05:27:21.193Z,22.86
2019-02-12T05:29:39.363Z,23.07
2019-02-12T05:31:46.672Z,23.18
2019-02-12T05:36:34.300Z,23.22
2019-02-12T05:38:50.973Z,23.09
2019-02-12T05:43:16.253Z,22.84
2019-02-12T05:45:36.001Z,22.80
2019-02-12T05:47:51.043Z,22.71
2019-02-12T05:50:01.417Z,22.63
2019-02-12T05:52:35.278Z,22.58
2019-02-12T05:54:42.490Z,22.56
2019-02-12T05:56:49.926Z,22.48
2019-02-12T05:58:57.737Z,22.47
2019-02-12T06:01:05.587Z,22.43
2019-02-12T06:03:12.895Z,22.34
2019-02-12T06:05:30.272Z,22.33
2019-02-12T06:07:37.976Z,22.37
2019-02-12T06:09:45.890Z,22.38
2019-02-12T06:11:53.243Z,22.53
2019-02-12T06:14:00.278Z,22.69
2019-02-12T06:16:07.587Z,22.83
2019-02-12T06:18:15.737Z,22.98
2019-02-12T06:20:23.023Z,23.10
2019-02-12T06:22:36.071Z,23.13
2019-02-12T06:24:43.317Z,23.16
2019-02-12T06:26:51.233Z,23.12
2019-02-12T06:28:58.693Z,22.92
2019-02-12T06:31:09.146Z,22.83
2019-02-12T06:33:16.293Z,22.76
2019-02-12T06:35:23.578Z,22.68
2019-02-12T06:37:30.974Z,22.55
2019-02-12T06:39:39.796Z,22.51
2019-02-12T06:41:47.123Z,22.43
2019-02-12T06:43:54.981Z,22.39
2019-02-12T06:46:02.489Z,22.39
2019-02-12T06:48:09.800Z,22.37
2019-02-12T06:50:18.312Z,22.27
2019-02-12T06:52:32.680Z,22.32
2019-02-12T06:54:53.371Z,22.31
2019-02-12T06:57:20.450Z,22.42
2019-02-12T06:59:50.634Z,22.63
2019-02-12T07:02:34.677Z,22.80
2019-02-12T07:05:05.889Z,23.03
2019-02-12T07:08:30.773Z,23.18
2019-02-12T07:10:09.036Z,23.11
2019-02-12T07:13:23.343Z,23.03
2019-02-12T07:18:54.537Z,22.73
2019-02-12T07:21:29.447Z,22.61
2019-02-12T07:24:18.795Z,22.52
2019-02-12T07:27:01.531Z,22.42
2019-02-12T07:29:37.419Z,22.31
2019-02-12T07:32:39.597Z,22.24
2019-02-12T07:35:06.896Z,22.13
2019-02-12T07:37:56.594Z,22.16
2019-02-12T07:40:41.741Z,22.12
2019-02-12T07:43:33.646Z,22.09
2019-02-12T07:46:22.775Z,22.05
2019-02-12T07:49:08.293Z,21.96
2019-02-12T07:54:53.895Z,22.36
2019-02-12T07:57:40.561Z,22.60
2019-02-12T08:00:47.035Z,22.80
2019-02-12T08:03:37.481Z,22.91
2019-02-12T08:07:35.407Z,22.97
2019-02-12T08:09:51.042Z,22.84
2019-02-12T08:12:29.390Z,22.80
2019-02-12T08:15:19.755Z,22.48
2019-02-12T08:18:16.590Z,22.54
2019-02-12T08:21:08.468Z,22.41
2019-02-12T08:23:41.515Z,22.33
2019-02-12T08:26:22.343Z,22.29
2019-02-12T08:29:09.453Z,22.20
2019-02-12T08:31:32.635Z,22.11
2019-02-12T08:34:20.694Z,22.08
2019-02-12T08:37:13.830Z,22.07
2019-02-12T08:40:25.527Z,22.07
2019-02-12T08:42:55.229Z,22.22
2019-02-12T08:45:43.535Z,22.46
2019-02-12T08:48:21.481Z,22.67
2019-02-12T08:51:10.768Z,22.86
2019-02-12T08:53:50.621Z,22.90
2019-02-12T08:56:25.382Z,22.83
2019-02-12T08:58:40.651Z,22.72
2019-02-12T09:01:12.910Z,22.62
2019-02-12T09:03:58.591Z,22.50
2019-02-12T09:06:39.775Z,22.39
2019-02-12T09:09:22.767Z,22.35
2019-02-12T09:12:11.131Z,22.24
2019-02-12T09:14:58.412Z,22.25
2019-02-12T09:17:40.651Z,22.13
2019-02-12T09:20:51.901Z,22.07
2019-02-12T09:23:36.985Z,22.03
2019-02-12T09:26:14.700Z,21.96
2019-02-12T09:29:12.038Z,22.03
2019-02-12T09:32:03.572Z,22.10
2019-02-12T09:34:56.052Z,22.31
2019-02-12T09:37:28.565Z,22.51
2019-02-12T09:40:25.284Z,22.74
2019-02-12T09:43:25.391Z,22.90
2019-02-12T09:46:01.358Z,22.87
2019-02-12T09:48:33.708Z,22.79
2019-02-12T09:51:15.819Z,22.69
2019-02-12T09:53:44.472Z,22.55
2019-02-12T09:56:40.904Z,22.50
2019-02-12T09:59:22.713Z,22.35
2019-02-12T10:02:28.309Z,22.27
2019-02-12T10:08:12.628Z,22.08
2019-02-12T10:10:56.484Z,22.05
2019-02-12T10:13:32.568Z,22.01
2019-02-12T10:16:30.146Z,21.99
2019-02-12T10:18:52.007Z,21.98
2019-02-12T10:21:19.512Z,21.91
2019-02-12T10:24:19.622Z,21.85
2019-02-12T10:26:26.097Z,21.86
2019-02-12T10:29:07.593Z,21.76
2019-02-12T10:31:41.143Z,21.76
2019-02-12T10:33:48.376Z,21.84
2019-02-12T10:35:55.780Z,21.98
2019-02-12T10:38:02.959Z,22.21
2019-02-12T10:40:10.231Z,22.41
2019-02-12T10:42:17.620Z,22.60
2019-02-12T10:44:26.338Z,22.74
2019-02-12T10:46:33.933Z,22.93
2019-02-12T10:48:41.342Z,23.04
2019-02-12T10:50:49.390Z,23.15
2019-02-12T10:52:56.533Z,23.20
2019-02-12T10:55:03.675Z,23.36
2019-02-12T10:57:11.187Z,23.40
2019-02-12T10:59:18.506Z,23.41
2019-02-12T11:01:25.703Z,23.36
2019-02-12T11:03:33.925Z,23.32
2019-02-12T11:05:41.327Z,23.22
2019-02-12T11:07:48.645Z,23.07
2019-02-12T11:09:55.702Z,23.01
2019-02-12T11:12:02.971Z,22.92
2019-02-12T11:14:10.652Z,22.79
2019-02-12T11:16:17.838Z,22.64
2019-02-12T11:18:26.217Z,22.56
2019-02-12T11:20:33.287Z,22.63
2019-02-12T11:22:40.579Z,22.50
2019-02-12T11:24:47.843Z,22.47
2019-02-12T11:26:55.136Z,22.42
2019-02-12T11:29:02.322Z,22.34
2019-02-12T11:31:16.373Z,22.28
2019-02-12T11:33:37.560Z,22.24
2019-02-12T11:35:55.831Z,22.20
2019-02-12T11:38:12.448Z,22.15
2019-02-12T11:40:37.734Z,22.06
2019-02-12T11:42:48.430Z,22.05
2019-02-12T11:47:30.269Z,22.00
2019-02-12T11:52:14.948Z,21.95
2019-02-12T11:54:29.916Z,22.00
2019-02-12T11:57:25.448Z,22.11
2019-02-12T11:59:37.562Z,22.24
2019-02-12T12:01:57.484Z,22.45
2019-02-12T12:04:08.737Z,22.62
2019-02-12T12:09:14.372Z,22.88
2019-02-12T12:12:03.924Z,23.02
2019-02-12T12:14:29.392Z,23.09
2019-02-12T12:17:00.629Z,23.14
2019-02-12T12:19:17.953Z,23.24
2019-02-12T12:21:37.226Z,23.20
2019-02-12T12:23:44.790Z,23.13
2019-02-12T12:25:59.299Z,23.07
2019-02-12T12:28:21.841Z,22.99
2019-02-12T12:30:34.561Z,22.93
2019-02-12T12:32:42.518Z,22.86
2019-02-12T12:35:00.252Z,22.83
2019-02-12T12:37:08.325Z,22.79
2019-02-12T12:39:15.382Z,22.86
2019-02-12T12:41:22.584Z,22.94
2019-02-12T12:43:29.989Z,23.08
2019-02-12T12:45:37.331Z,23.20
2019-02-12T12:47:44.561Z,23.24
2019-02-12T12:50:20.774Z,23.40
2019-02-12T12:52:28.078Z,23.41
2019-02-12T12:54:35.393Z,23.50
2019-02-12T12:56:42.560Z,23.57
2019-02-12T12:58:50.622Z,23.65
2019-02-12T13:07:45.512Z,23.82
2019-02-12T13:09:39.460Z,23.93
2019-02-12T13:14:35.296Z,24.26
2019-02-12T13:16:42.482Z,24.38
2019-02-12T13:18:50.642Z,24.50
2019-02-12T13:21:00.792Z,24.62
2019-02-12T13:23:48.480Z,24.70
2019-02-12T13:25:57.362Z,24.77
2019-02-12T13:28:04.824Z,24.87
2019-02-12T13:30:40.647Z,24.96
2019-02-12T13:32:45.005Z,24.97
2019-02-12T13:34:52.280Z,25.04
2019-02-12T13:36:59.613Z,25.11
2019-02-12T13:39:07.769Z,25.25
2019-02-12T13:44:13.939Z,25.33
2019-02-12T13:46:21.869Z,25.32
2019-02-12T13:48:35.600Z,25.34
2019-02-12T13:51:19.551Z,25.36
2019-02-12T13:52:57.782Z,25.16
2019-02-12T13:55:59.295Z,24.98
2019-02-12T14:01:01.631Z,24.77
2019-02-12T14:03:09.081Z,24.69
2019-02-12T14:06:01.391Z,24.54
2019-02-12T14:09:19.346Z,24.42
2019-02-12T14:10:48.432Z,24.22
2019-02-12T14:12:56.390Z,24.22
2019-02-12T14:15:03.614Z,24.16
2019-02-12T14:17:11.052Z,24.32
2019-02-12T14:19:18.518Z,24.33
2019-02-12T14:21:25.581Z,24.54
2019-02-12T14:23:32.679Z,24.74
2019-02-12T14:25:40.245Z,24.90
2019-02-12T14:27:47.504Z,25.05
2019-02-12T14:29:54.742Z,25.22
2019-02-12T14:32:02.067Z,25.38
2019-02-12T14:34:09.435Z,25.41
2019-02-12T14:36:16.442Z,25.55
2019-02-12T14:38:23.718Z,25.56
2019-02-12T14:40:31.085Z,25.40
2019-02-12T14:42:38.644Z,25.35
2019-02-12T14:44:46.106Z,25.29
2019-02-12T14:46:53.767Z,25.17
2019-02-12T14:49:01.206Z,25.01
2019-02-12T14:51:08.699Z,24.87
2019-02-12T14:53:16.656Z,24.83
2019-02-12T14:55:23.542Z,24.70
2019-02-12T14:57:30.413Z,24.65
2019-02-12T14:59:37.722Z,24.59
2019-02-12T15:01:45.196Z,24.49
2019-02-12T15:03:52.252Z,24.36
2019-02-12T15:05:59.378Z,24.27
2019-02-12T15:08:06.873Z,24.29
2019-02-12T15:10:28.968Z,24.34
2019-02-12T15:12:36.853Z,24.43
2019-02-12T15:14:44.239Z,24.62
2019-02-12T15:16:51.360Z,24.74
2019-02-12T15:18:58.694Z,24.92
2019-02-12T15:21:06.058Z,25.06
2019-02-12T15:23:13.475Z,25.15
2019-02-12T15:25:20.805Z,25.23
2019-02-12T15:27:28.334Z,25.22
2019-02-12T15:29:37.356Z,25.17
2019-02-12T15:31:44.515Z,25.14
2019-02-12T15:33:51.848Z,25.11
2019-02-12T15:35:59.345Z,24.99
2019-02-12T15:38:06.676Z,24.90
2019-02-12T15:40:15.167Z,24.73
2019-02-12T15:42:22.470Z,24.63
2019-02-12T15:44:29.776Z,24.58
2019-02-12T15:46:37.078Z,24.50
2019-02-12T15:48:45.287Z,24.48
2019-02-12T15:50:52.398Z,24.41
2019-02-12T15:52:59.844Z,24.29
2019-02-12T15:55:13.240Z,24.25
2019-02-12T15:57:20.601Z,24.16
2019-02-12T15:59:29.528Z,24.20
2019-02-12T16:01:37.225Z,24.43
2019-02-12T16:03:45.082Z,24.54
2019-02-12T16:05:57.191Z,24.65
2019-02-12T16:08:10.798Z,24.70
2019-02-12T16:10:25.886Z,24.87
2019-02-12T16:12:33.359Z,24.89
2019-02-12T16:14:47.906Z,24.88
2019-02-12T16:17:35.372Z,24.84
2019-02-12T16:19:42.863Z,24.81
2019-02-12T16:21:50.807Z,24.62
2019-02-12T16:23:58.099Z,24.55
2019-02-12T16:26:05.364Z,24.48
2019-02-12T16:28:12.748Z,24.49
2019-02-12T16:30:21.217Z,24.48
2019-02-12T16:32:31.403Z,24.48
2019-02-12T16:34:38.798Z,24.46
2019-02-12T16:36:46.204Z,24.42
2019-02-12T16:38:54.042Z,24.46
2019-02-12T16:41:01.152Z,24.42
2019-02-12T16:43:08.318Z,24.37
2019-02-12T16:45:25.437Z,24.31
2019-02-12T16:47:32.576Z,24.30
2019-02-12T16:49:39.711Z,24.36
2019-02-12T16:51:47.133Z,24.49
2019-02-12T16:53:55.612Z,24.60
2019-02-12T16:56:08.096Z,24.73
2019-02-12T16:58:11.692Z,24.80
2019-02-12T17:00:19.586Z,24.88
2019-02-12T17:02:26.785Z,24.95
2019-02-12T17:04:34.293Z,24.94
2019-02-12T17:06:41.618Z,25.01
2019-02-12T17:08:49.075Z,24.98
2019-02-12T17:10:56.192Z,24.94
2019-02-12T17:13:04.065Z,24.84
2019-02-12T17:15:12.021Z,24.73
2019-02-12T17:17:19.409Z,24.69
2019-02-12T17:19:27.051Z,24.60
2019-02-12T17:21:34.495Z,24.52
2019-02-12T17:23:41.924Z,24.47
2019-02-12T17:25:49.328Z,24.47
2019-02-12T17:27:56.579Z,24.51
2019-02-12T17:30:07.102Z,24.48
2019-02-12T17:32:14.401Z,24.50
2019-02-12T17:34:22.593Z,24.45
2019-02-12T17:36:30.402Z,24.41
2019-02-12T17:41:04.333Z,24.36
2019-02-12T17:43:11.474Z,24.30
2019-02-12T17:45:25.348Z,24.28
2019-02-12T17:48:16.550Z,24.23
2019-02-12T17:50:36.502Z,24.19
2019-02-12T17:53:18.593Z,24.12
2019-02-12T17:55:24.152Z,24.05
2019-02-12T17:57:33.443Z,24.06
2019-02-12T17:59:40.558Z,24.05
2019-02-12T18:02:14.642Z,24.01
2019-02-12T18:04:21.870Z,24.00
2019-02-12T18:06:29.918Z,23.94
2019-02-12T18:08:37.228Z,23.92
2019-02-12T18:10:44.634Z,23.88
2019-02-12T18:12:52.770Z,23.87
2019-02-12T18:15:00.337Z,23.83
2019-02-12T18:17:07.918Z,23.74
2019-02-12T18:19:15.445Z,23.74
2019-02-12T18:21:23.378Z,23.71
2019-02-12T18:23:35.930Z,23.69
2019-02-12T18:25:44.190Z,23.67
2019-02-12T18:27:51.390Z,23.71
2019-02-12T18:29:59.475Z,23.92
2019-02-12T18:32:07.856Z,24.04
2019-02-12T18:34:18.303Z,24.21
2019-02-12T18:36:25.773Z,24.46
2019-02-12T18:38:33.232Z,24.60
2019-02-12T18:40:40.682Z,24.83
2019-02-12T18:42:48.637Z,24.96
2019-02-12T18:44:56.188Z,25.07
2019-02-12T18:47:04.355Z,25.13
2019-02-12T18:49:12.646Z,25.18
2019-02-12T18:51:20.793Z,25.14
2019-02-12T18:53:28.969Z,25.15
2019-02-12T18:55:36.218Z,25.13
2019-02-12T18:57:48.545Z,25.04
2019-02-12T18:59:59.149Z,25.02
2019-02-12T19:02:07.341Z,24.90
2019-02-12T19:04:15.523Z,24.83
2019-02-12T19:06:23.873Z,24.75
2019-02-12T19:08:31.915Z,24.65
2019-02-12T19:10:40.476Z,24.26
2019-02-12T19:12:54.243Z,24.46
2019-02-12T19:15:01.983Z,24.40
2019-02-12T19:17:09.296Z,24.40
2019-02-12T19:19:16.825Z,24.39
2019-02-12T19:21:25.574Z,24.20
2019-02-12T19:23:33.293Z,24.19
2019-02-12T19:25:40.830Z,24.10
2019-02-12T19:27:48.089Z,24.05
2019-02-12T19:29:55.333Z,24.11
2019-02-12T19:32:02.817Z,24.04
2019-02-12T19:34:10.519Z,24.11
2019-02-12T19:36:42.220Z,24.32
2019-02-12T19:38:52.141Z,24.59
2019-02-12T19:40:59.432Z,24.82
2019-02-12T19:43:19.507Z,25.03
2019-02-12T19:45:28.319Z,25.13
2019-02-12T19:47:35.737Z,25.15
2019-02-12T19:49:48.479Z,25.06
2019-02-12T19:51:55.997Z,25.01
2019-02-12T19:54:10.118Z,24.97
2019-02-12T19:56:20.697Z,24.95
2019-02-12T19:58:29.218Z,24.89
2019-02-12T20:00:58.608Z,24.83
2019-02-12T20:03:07.151Z,24.73
2019-02-12T20:05:16.370Z,24.60
2019-02-12T20:07:24.319Z,24.56
2019-02-12T20:09:32.832Z,24.50
2019-02-12T20:11:40.233Z,24.44
2019-02-12T20:13:48.073Z,24.44
2019-02-12T20:15:58.710Z,24.42
2019-02-12T20:18:11.636Z,24.44
2019-02-12T20:20:19.634Z,24.50
2019-02-12T20:22:26.700Z,24.44
2019-02-12T20:24:34.044Z,24.45
2019-02-12T20:26:42.477Z,24.38
2019-02-12T20:28:55.569Z,24.49
2019-02-12T20:31:03.492Z,24.73
2019-02-12T20:33:11.899Z,24.84
2019-02-12T20:35:22.722Z,24.98
2019-02-12T20:37:30.177Z,25.05
2019-02-12T20:39:40.193Z,25.02
2019-02-12T20:41:56.463Z,24.90
2019-02-12T20:44:03.914Z,24.96
2019-02-12T20:46:11.162Z,24.99
2019-02-12T20:48:18.359Z,24.92
2019-02-12T20:50:31.949Z,24.84
2019-02-12T20:52:39.554Z,24.80
2019-02-12T20:54:47.009Z,24.77
2019-02-12T20:56:55.319Z,24.75
2019-02-12T20:59:08.126Z,24.61
2019-02-12T21:01:16.672Z,24.59
2019-02-12T21:03:24.435Z,24.52
2019-02-12T21:05:33.514Z,24.50
2019-02-12T21:07:52.419Z,24.43
2019-02-12T21:10:07.407Z,24.44
2019-02-12T21:12:16.521Z,24.42
2019-02-12T21:14:35.179Z,24.37
2019-02-12T21:16:43.536Z,24.36
2019-02-12T21:18:52.205Z,24.37
2019-02-12T21:21:07.660Z,24.33
2019-02-12T21:23:26.964Z,24.45
2019-02-12T21:25:34.518Z,24.54
2019-02-12T21:28:14.184Z,24.72
2019-02-12T21:30:14.462Z,24.84
2019-02-12T21:32:37.255Z,25.04
2019-02-12T21:34:44.610Z,25.15
2019-02-12T21:36:52.107Z,25.17
2019-02-12T21:39:00.023Z,25.09
2019-02-12T21:41:07.528Z,25.03
2019-02-12T21:43:15.528Z,24.98
2019-02-12T21:45:37.969Z,24.96
2019-02-12T21:48:17.914Z,24.90
2019-02-12T21:50:20.984Z,24.82
2019-02-12T21:52:39.318Z,24.71
2019-02-12T21:55:15.486Z,24.62
2019-02-12T21:57:32.247Z,24.63
2019-02-12T21:59:41.721Z,24.63
2019-02-12T22:02:15.306Z,24.54
2019-02-12T22:05:25.108Z,24.48
2019-02-12T22:09:35.823Z,24.35
2019-02-12T22:11:50.104Z,24.21
2019-02-12T22:14:01.928Z,24.36
2019-02-12T22:16:15.086Z,24.58
2019-02-12T22:18:25.708Z,24.75
2019-02-12T22:20:43.647Z,24.93
2019-02-12T22:22:51.440Z,25.08
2019-02-12T22:24:58.807Z,25.23
2019-02-12T22:27:10.515Z,25.24
2019-02-12T22:29:17.974Z,25.17
2019-02-12T22:31:25.355Z,25.09
2019-02-12T22:33:32.857Z,24.98
2019-02-12T22:35:40.333Z,24.91
2019-02-12T22:37:47.740Z,24.87
2019-02-12T22:39:55.086Z,24.88
2019-02-12T22:42:02.465Z,24.84
2019-02-12T22:44:09.879Z,24.82
2019-02-12T22:46:17.378Z,24.72
2019-02-12T22:48:24.706Z,24.57
2019-02-12T22:50:32.181Z,24.63
2019-02-12T22:52:39.425Z,24.66
2019-02-12T22:54:50.168Z,24.62
2019-02-12T22:57:01.671Z,24.62
2019-02-12T22:59:10.265Z,24.63
2019-02-12T23:01:18.691Z,24.38
2019-02-12T23:03:26.859Z,24.44
2019-02-12T23:05:34.239Z,24.40
2019-02-12T23:07:41.590Z,24.49
2019-02-12T23:09:49.038Z,24.43
2019-02-12T23:11:56.521Z,24.37
2019-02-12T23:14:03.908Z,24.31
2019-02-12T23:16:11.358Z,24.25
2019-02-12T23:18:21.135Z,24.25
2019-02-12T23:20:28.615Z,24.23
2019-02-12T23:22:35.781Z,24.18
2019-02-12T23:24:43.824Z,24.13
2019-02-12T23:26:52.035Z,24.12
2019-02-12T23:28:59.444Z,24.06
2019-02-12T23:31:07.282Z,24.11
2019-02-12T23:33:14.842Z,24.20
2019-02-12T23:35:22.290Z,24.38
2019-02-12T23:37:29.656Z,24.53
2019-02-12T23:39:37.902Z,24.71
2019-02-12T23:41:45.281Z,24.85
2019-02-12T23:43:52.819Z,24.92
2019-02-12T23:45:59.951Z,24.94
2019-02-12T23:48:13.992Z,24.98
2019-02-12T23:50:21.708Z,24.92
2019-02-12T23:52:28.977Z,24.86
2019-02-12T23:54:46.678Z,24.84
2019-02-12T23:56:54.195Z,24.66
2019-02-12T23:59:02.192Z,24.74
